sensor_id;sensor_type;location;lat;lon;timestamp;pressure;altitude;pressure_sealevel;temperature;humidity
61320;BME280;47202;41.440;-8.310;2023-02-03T00:01:03;101124.00;;;4.66;87.69
61320;BME280;47202;41.440;-8.310;2023-02-03T00:03:05;101121.81;;;4.62;87.93
61320;BME280;47202;41.440;-8.310;2023-02-03T00:05:07;101116.13;;;4.57;87.78
61320;BME280;47202;41.440;-8.310;2023-02-03T00:07:10;101086.81;;;4.40;88.23
61320;BME280;47202;41.440;-8.310;2023-02-03T00:09:12;101087.66;;;4.41;87.74
61320;BME280;47202;41.440;-8.310;2023-02-03T00:11:13;101097.28;;;4.42;88.54
61320;BME280;47202;41.440;-8.310;2023-02-03T00:13:14;101096.25;;;4.35;88.41
61320;BME280;47202;41.440;-8.310;2023-02-03T00:15:15;101087.78;;;4.31;88.78
61320;BME280;47202;41.440;-8.310;2023-02-03T00:17:16;101113.59;;;4.47;89.23
61320;BME280;47202;41.440;-8.310;2023-02-03T00:19:17;101091.75;;;4.35;88.99
61320;BME280;47202;41.440;-8.310;2023-02-03T00:21:18;101110.25;;;4.45;89.03
61320;BME280;47202;41.440;-8.310;2023-02-03T00:23:20;101107.78;;;4.43;88.93
61320;BME280;47202;41.440;-8.310;2023-02-03T00:25:21;101093.72;;;4.33;88.53
61320;BME280;47202;41.440;-8.310;2023-02-03T00:27:22;101114.59;;;4.46;88.50
61320;BME280;47202;41.440;-8.310;2023-02-03T00:29:23;101110.56;;;4.42;88.57
61320;BME280;47202;41.440;-8.310;2023-02-03T00:31:25;101117.25;;;4.46;88.90
61320;BME280;47202;41.440;-8.310;2023-02-03T00:33:26;101111.41;;;4.42;88.95
61320;BME280;47202;41.440;-8.310;2023-02-03T00:35:27;101116.56;;;4.44;88.96
61320;BME280;47202;41.440;-8.310;2023-02-03T00:37:28;101096.09;;;4.36;89.20
61320;BME280;47202;41.440;-8.310;2023-02-03T00:39:29;101129.06;;;4.52;88.66
61320;BME280;47202;41.440;-8.310;2023-02-03T00:41:30;101123.63;;;4.53;88.46
61320;BME280;47202;41.440;-8.310;2023-02-03T00:43:31;101122.25;;;4.49;87.73
61320;BME280;47202;41.440;-8.310;2023-02-03T00:45:32;101111.00;;;4.29;87.76
61320;BME280;47202;41.440;-8.310;2023-02-03T00:47:33;101130.00;;;4.42;87.35
61320;BME280;47202;41.440;-8.310;2023-02-03T00:49:34;101134.34;;;4.43;87.07
61320;BME280;47202;41.440;-8.310;2023-02-03T00:51:35;101112.84;;;4.29;87.49
61320;BME280;47202;41.440;-8.310;2023-02-03T00:53:36;101130.19;;;4.41;86.89
61320;BME280;47202;41.440;-8.310;2023-02-03T00:55:37;101125.47;;;4.35;87.43
61320;BME280;47202;41.440;-8.310;2023-02-03T00:57:38;101122.69;;;4.36;87.66
61320;BME280;47202;41.440;-8.310;2023-02-03T00:59:39;101095.94;;;4.12;88.10
61320;BME280;47202;41.440;-8.310;2023-02-03T01:01:40;101124.41;;;4.19;87.89
61320;BME280;47202;41.440;-8.310;2023-02-03T01:03:41;101108.84;;;4.07;87.57
61320;BME280;47202;41.440;-8.310;2023-02-03T01:05:43;101095.97;;;3.94;87.58
61320;BME280;47202;41.440;-8.310;2023-02-03T01:07:44;101120.16;;;4.09;87.53
61320;BME280;47202;41.440;-8.310;2023-02-03T01:09:45;101096.56;;;3.88;87.24
61320;BME280;47202;41.440;-8.310;2023-02-03T01:11:46;101122.75;;;4.00;87.69
61320;BME280;47202;41.440;-8.310;2023-02-03T01:13:48;101121.06;;;3.99;88.64
61320;BME280;47202;41.440;-8.310;2023-02-03T01:15:49;101109.19;;;3.86;89.02
61320;BME280;47202;41.440;-8.310;2023-02-03T01:17:50;101113.97;;;3.82;88.91
61320;BME280;47202;41.440;-8.310;2023-02-03T01:19:52;101110.31;;;3.83;89.02
61320;BME280;47202;41.440;-8.310;2023-02-03T01:21:53;101124.50;;;3.92;89.56
61320;BME280;47202;41.440;-8.310;2023-02-03T01:23:54;101125.56;;;3.99;89.72
61320;BME280;47202;41.440;-8.310;2023-02-03T01:25:55;101108.06;;;3.88;89.26
61320;BME280;47202;41.440;-8.310;2023-02-03T01:27:56;101128.75;;;4.02;89.56
61320;BME280;47202;41.440;-8.310;2023-02-03T01:29:57;101132.56;;;4.00;89.37
61320;BME280;47202;41.440;-8.310;2023-02-03T01:31:59;101126.38;;;3.99;89.16
61320;BME280;47202;41.440;-8.310;2023-02-03T01:34:01;101129.72;;;4.01;88.95
61320;BME280;47202;41.440;-8.310;2023-02-03T01:36:03;101134.34;;;3.99;88.19
61320;BME280;47202;41.440;-8.310;2023-02-03T01:38:04;101137.19;;;3.98;88.07
61320;BME280;47202;41.440;-8.310;2023-02-03T01:40:06;101126.84;;;3.95;87.99
61320;BME280;47202;41.440;-8.310;2023-02-03T01:42:11;101137.94;;;3.90;87.88
61320;BME280;47202;41.440;-8.310;2023-02-03T01:44:53;101138.09;;;3.89;87.86
61320;BME280;47202;41.440;-8.310;2023-02-03T01:46:54;101136.72;;;3.84;88.41
61320;BME280;47202;41.440;-8.310;2023-02-03T01:49:10;101134.91;;;3.85;88.53
61320;BME280;47202;41.440;-8.310;2023-02-03T01:51:12;101140.22;;;3.85;88.67
61320;BME280;47202;41.440;-8.310;2023-02-03T01:53:14;101133.84;;;3.78;88.04
61320;BME280;47202;41.440;-8.310;2023-02-03T01:55:19;101139.47;;;3.75;88.23
61320;BME280;47202;41.440;-8.310;2023-02-03T01:57:23;101132.28;;;3.67;88.99
61320;BME280;47202;41.440;-8.310;2023-02-03T01:59:27;101140.38;;;3.66;89.03
61320;BME280;47202;41.440;-8.310;2023-02-03T02:01:30;101123.38;;;3.58;88.74
61320;BME280;47202;41.440;-8.310;2023-02-03T02:03:37;101137.19;;;3.62;89.71
61320;BME280;47202;41.440;-8.310;2023-02-03T02:05:53;101122.88;;;3.55;89.70
61320;BME280;47202;41.440;-8.310;2023-02-03T02:07:59;101141.00;;;3.59;89.92
61320;BME280;47202;41.440;-8.310;2023-02-03T02:10:00;101151.63;;;3.59;90.02
61320;BME280;47202;41.440;-8.310;2023-02-03T02:12:01;101139.75;;;3.54;90.03
61320;BME280;47202;41.440;-8.310;2023-02-03T02:14:02;101135.75;;;3.50;89.49
61320;BME280;47202;41.440;-8.310;2023-02-03T02:24:23;101142.78;;;3.41;91.28
61320;BME280;47202;41.440;-8.310;2023-02-03T02:38:37;101161.69;;;3.10;90.84
61320;BME280;47202;41.440;-8.310;2023-02-03T02:40:48;101164.19;;;3.12;91.06
61320;BME280;47202;41.440;-8.310;2023-02-03T02:45:22;101157.75;;;3.14;91.56
61320;BME280;47202;41.440;-8.310;2023-02-03T02:47:27;101168.88;;;3.18;91.56
61320;BME280;47202;41.440;-8.310;2023-02-03T02:49:47;101156.38;;;3.10;91.51
61320;BME280;47202;41.440;-8.310;2023-02-03T02:51:50;101148.59;;;2.99;91.54
61320;BME280;47202;41.440;-8.310;2023-02-03T02:54:05;101157.84;;;2.95;91.43
61320;BME280;47202;41.440;-8.310;2023-02-03T02:56:09;101158.47;;;2.79;91.41
61320;BME280;47202;41.440;-8.310;2023-02-03T02:58:13;101159.03;;;2.73;91.60
61320;BME280;47202;41.440;-8.310;2023-02-03T03:00:15;101150.69;;;2.68;91.97
61320;BME280;47202;41.440;-8.310;2023-02-03T03:02:16;101151.25;;;2.71;92.42
61320;BME280;47202;41.440;-8.310;2023-02-03T03:04:21;101151.63;;;2.76;92.59
61320;BME280;47202;41.440;-8.310;2023-02-03T03:06:36;101137.38;;;2.77;92.39
61320;BME280;47202;41.440;-8.310;2023-02-03T03:10:52;101144.69;;;2.75;93.09
61320;BME280;47202;41.440;-8.310;2023-02-03T03:12:59;101133.91;;;2.77;93.21
61320;BME280;47202;41.440;-8.310;2023-02-03T03:15:14;101135.88;;;2.75;94.04
61320;BME280;47202;41.440;-8.310;2023-02-03T03:17:32;101135.72;;;2.76;94.29
61320;BME280;47202;41.440;-8.310;2023-02-03T03:19:38;101136.00;;;2.83;94.55
61320;BME280;47202;41.440;-8.310;2023-02-03T03:21:46;101136.38;;;2.88;94.44
61320;BME280;47202;41.440;-8.310;2023-02-03T03:23:50;101130.78;;;2.91;94.26
61320;BME280;47202;41.440;-8.310;2023-02-03T03:28:39;101130.47;;;2.94;93.64
61320;BME280;47202;41.440;-8.310;2023-02-03T03:30:42;101135.13;;;2.92;93.26
61320;BME280;47202;41.440;-8.310;2023-02-03T03:32:43;101136.63;;;2.95;93.21
61320;BME280;47202;41.440;-8.310;2023-02-03T03:34:45;101140.94;;;2.96;93.18
61320;BME280;47202;41.440;-8.310;2023-02-03T03:36:52;101138.59;;;2.93;92.99
61320;BME280;47202;41.440;-8.310;2023-02-03T03:39:27;101143.72;;;2.94;92.94
61320;BME280;47202;41.440;-8.310;2023-02-03T03:41:40;101142.22;;;2.92;93.08
61320;BME280;47202;41.440;-8.310;2023-02-03T03:43:46;101133.88;;;2.87;92.84
61320;BME280;47202;41.440;-8.310;2023-02-03T03:46:19;101137.06;;;2.90;92.54
61320;BME280;47202;41.440;-8.310;2023-02-03T03:48:27;101147.44;;;2.84;92.70
61320;BME280;47202;41.440;-8.310;2023-02-03T03:50:55;101137.81;;;2.83;93.29
61320;BME280;47202;41.440;-8.310;2023-02-03T03:53:00;101142.13;;;2.84;93.30
61320;BME280;47202;41.440;-8.310;2023-02-03T03:55:04;101136.72;;;2.75;92.92
61320;BME280;47202;41.440;-8.310;2023-02-03T03:57:32;101146.22;;;2.78;92.08
61320;BME280;47202;41.440;-8.310;2023-02-03T03:59:38;101150.25;;;2.72;92.03
61320;BME280;47202;41.440;-8.310;2023-02-03T04:01:40;101157.69;;;2.69;92.09
61320;BME280;47202;41.440;-8.310;2023-02-03T04:03:47;101146.69;;;2.64;92.71
61320;BME280;47202;41.440;-8.310;2023-02-03T04:05:50;101142.34;;;2.63;92.88
61320;BME280;47202;41.440;-8.310;2023-02-03T04:07:51;101144.03;;;2.64;93.14
61320;BME280;47202;41.440;-8.310;2023-02-03T04:09:52;101149.59;;;2.61;93.28
61320;BME280;47202;41.440;-8.310;2023-02-03T04:11:52;101129.13;;;2.53;93.39
61320;BME280;47202;41.440;-8.310;2023-02-03T04:14:02;101139.59;;;2.54;94.54
61320;BME280;47202;41.440;-8.310;2023-02-03T04:16:03;101136.78;;;2.56;94.35
61320;BME280;47202;41.440;-8.310;2023-02-03T04:18:05;101121.47;;;2.50;94.35
61320;BME280;47202;41.440;-8.310;2023-02-03T04:20:06;101129.81;;;2.55;94.64
61320;BME280;47202;41.440;-8.310;2023-02-03T04:22:07;101136.78;;;2.56;94.65
61320;BME280;47202;41.440;-8.310;2023-02-03T04:24:08;101145.03;;;2.53;94.71
61320;BME280;47202;41.440;-8.310;2023-02-03T04:26:09;101153.97;;;2.52;94.53
61320;BME280;47202;41.440;-8.310;2023-02-03T04:28:10;101152.97;;;2.53;94.69
61320;BME280;47202;41.440;-8.310;2023-02-03T04:30:11;101142.53;;;2.51;94.66
61320;BME280;47202;41.440;-8.310;2023-02-03T04:32:13;101144.72;;;2.56;94.87
61320;BME280;47202;41.440;-8.310;2023-02-03T04:34:14;101144.16;;;2.62;94.73
61320;BME280;47202;41.440;-8.310;2023-02-03T04:36:14;101141.38;;;2.64;94.84
61320;BME280;47202;41.440;-8.310;2023-02-03T04:38:15;101141.63;;;2.61;94.57
61320;BME280;47202;41.440;-8.310;2023-02-03T04:40:16;101136.34;;;2.61;94.58
61320;BME280;47202;41.440;-8.310;2023-02-03T04:42:17;101138.72;;;2.64;94.53
61320;BME280;47202;41.440;-8.310;2023-02-03T04:44:18;101127.03;;;2.57;94.27
61320;BME280;47202;41.440;-8.310;2023-02-03T04:46:19;101135.50;;;2.60;94.37
61320;BME280;47202;41.440;-8.310;2023-02-03T04:48:20;101124.81;;;2.52;94.50
61320;BME280;47202;41.440;-8.310;2023-02-03T04:50:21;101135.13;;;2.55;94.16
61320;BME280;47202;41.440;-8.310;2023-02-03T04:52:22;101134.59;;;2.51;94.04
61320;BME280;47202;41.440;-8.310;2023-02-03T04:54:23;101135.69;;;2.49;93.69
61320;BME280;47202;41.440;-8.310;2023-02-03T04:56:24;101133.50;;;2.44;93.95
61320;BME280;47202;41.440;-8.310;2023-02-03T04:58:25;101132.50;;;2.45;93.84
61320;BME280;47202;41.440;-8.310;2023-02-03T05:00:27;101135.28;;;2.44;93.68
61320;BME280;47202;41.440;-8.310;2023-02-03T05:02:28;101138.63;;;2.46;93.75
61320;BME280;47202;41.440;-8.310;2023-02-03T05:04:29;101140.72;;;2.52;93.92
61320;BME280;47202;41.440;-8.310;2023-02-03T05:06:30;101142.38;;;2.53;94.42
61320;BME280;47202;41.440;-8.310;2023-02-03T05:08:32;101136.38;;;2.51;94.68
61320;BME280;47202;41.440;-8.310;2023-02-03T05:10:33;101135.53;;;2.50;94.94
61320;BME280;47202;41.440;-8.310;2023-02-03T05:12:34;101137.50;;;2.48;94.87
61320;BME280;47202;41.440;-8.310;2023-02-03T05:14:35;101140.88;;;2.41;94.93
61320;BME280;47202;41.440;-8.310;2023-02-03T05:16:36;101132.66;;;2.34;95.36
61320;BME280;47202;41.440;-8.310;2023-02-03T05:18:37;101134.06;;;2.38;95.50
61320;BME280;47202;41.440;-8.310;2023-02-03T05:20:38;101143.38;;;2.42;95.54
61320;BME280;47202;41.440;-8.310;2023-02-03T05:22:39;101131.94;;;2.42;95.22
61320;BME280;47202;41.440;-8.310;2023-02-03T05:24:40;101130.97;;;2.43;95.21
61320;BME280;47202;41.440;-8.310;2023-02-03T05:26:41;101143.22;;;2.44;94.69
61320;BME280;47202;41.440;-8.310;2023-02-03T05:28:42;101139.34;;;2.38;94.63
61320;BME280;47202;41.440;-8.310;2023-02-03T05:30:43;101136.84;;;2.37;94.48
61320;BME280;47202;41.440;-8.310;2023-02-03T05:32:43;101145.63;;;2.37;94.06
61320;BME280;47202;41.440;-8.310;2023-02-03T05:34:44;101151.06;;;2.36;94.43
61320;BME280;47202;41.440;-8.310;2023-02-03T05:36:45;101148.28;;;2.37;94.80
61320;BME280;47202;41.440;-8.310;2023-02-03T05:38:46;101154.84;;;2.33;94.34
61320;BME280;47202;41.440;-8.310;2023-02-03T05:40:48;101152.19;;;2.33;94.63
61320;BME280;47202;41.440;-8.310;2023-02-03T05:43:09;101154.69;;;2.25;94.18
61320;BME280;47202;41.440;-8.310;2023-02-03T05:45:10;101156.81;;;2.21;94.48
61320;BME280;47202;41.440;-8.310;2023-02-03T05:47:11;101146.94;;;2.13;94.33
61320;BME280;47202;41.440;-8.310;2023-02-03T05:49:12;101161.69;;;2.16;94.03
61320;BME280;47202;41.440;-8.310;2023-02-03T05:51:13;101160.59;;;2.09;94.37
61320;BME280;47202;41.440;-8.310;2023-02-03T05:53:14;101156.41;;;2.06;94.94
61320;BME280;47202;41.440;-8.310;2023-02-03T05:55:15;101170.06;;;2.11;94.91
61320;BME280;47202;41.440;-8.310;2023-02-03T05:57:16;101160.19;;;2.04;94.34
61320;BME280;47202;41.440;-8.310;2023-02-03T05:59:18;101172.72;;;2.11;94.57
61320;BME280;47202;41.440;-8.310;2023-02-03T06:01:19;101174.53;;;2.11;95.05
61320;BME280;47202;41.440;-8.310;2023-02-03T06:03:20;101174.25;;;2.14;94.88
61320;BME280;47202;41.440;-8.310;2023-02-03T06:05:22;101178.31;;;2.08;95.24
61320;BME280;47202;41.440;-8.310;2023-02-03T06:07:23;101178.56;;;2.05;95.04
61320;BME280;47202;41.440;-8.310;2023-02-03T06:09:24;101181.38;;;2.04;95.21
61320;BME280;47202;41.440;-8.310;2023-02-03T06:11:25;101182.31;;;2.03;95.20
61320;BME280;47202;41.440;-8.310;2023-02-03T06:13:27;101183.03;;;2.05;95.49
61320;BME280;47202;41.440;-8.310;2023-02-03T06:15:28;101180.38;;;2.05;95.71
61320;BME280;47202;41.440;-8.310;2023-02-03T06:17:29;101182.91;;;2.06;95.08
61320;BME280;47202;41.440;-8.310;2023-02-03T06:19:30;101176.91;;;2.04;94.73
61320;BME280;47202;41.440;-8.310;2023-02-03T06:21:31;101175.50;;;2.00;94.78
61320;BME280;47202;41.440;-8.310;2023-02-03T06:23:31;101182.31;;;2.03;94.72
61320;BME280;47202;41.440;-8.310;2023-02-03T06:25:32;101173.97;;;1.98;94.95
61320;BME280;47202;41.440;-8.310;2023-02-03T06:27:33;101177.19;;;2.01;94.48
61320;BME280;47202;41.440;-8.310;2023-02-03T06:29:34;101182.50;;;2.01;95.01
61320;BME280;47202;41.440;-8.310;2023-02-03T06:31:35;101175.09;;;1.95;94.84
61320;BME280;47202;41.440;-8.310;2023-02-03T06:33:36;101183.31;;;2.02;95.58
61320;BME280;47202;41.440;-8.310;2023-02-03T06:35:37;101182.31;;;2.03;96.03
61320;BME280;47202;41.440;-8.310;2023-02-03T06:37:38;101179.56;;;2.04;95.96
61320;BME280;47202;41.440;-8.310;2023-02-03T06:39:39;101195.03;;;2.09;95.88
61320;BME280;47202;41.440;-8.310;2023-02-03T06:41:40;101189.72;;;2.09;95.48
61320;BME280;47202;41.440;-8.310;2023-02-03T06:43:41;101192.09;;;2.12;95.76
61320;BME280;47202;41.440;-8.310;2023-02-03T06:45:45;101199.75;;;2.15;95.53
61320;BME280;47202;41.440;-8.310;2023-02-03T06:47:46;101202.13;;;2.18;95.88
61320;BME280;47202;41.440;-8.310;2023-02-03T06:49:47;101206.16;;;2.22;96.24
61320;BME280;47202;41.440;-8.310;2023-02-03T06:51:48;101198.38;;;2.21;95.71
61320;BME280;47202;41.440;-8.310;2023-02-03T06:53:49;101208.09;;;2.20;96.01
61320;BME280;47202;41.440;-8.310;2023-02-03T06:55:50;101209.38;;;2.16;96.50
61320;BME280;47202;41.440;-8.310;2023-02-03T06:57:51;101216.91;;;2.11;96.69
61320;BME280;47202;41.440;-8.310;2023-02-03T06:59:52;101217.03;;;2.09;96.83
61320;BME280;47202;41.440;-8.310;2023-02-03T07:01:54;101207.28;;;2.00;96.44
61320;BME280;47202;41.440;-8.310;2023-02-03T07:03:56;101218.44;;;2.04;96.40
61320;BME280;47202;41.440;-8.310;2023-02-03T07:05:58;101213.00;;;2.05;96.23
61320;BME280;47202;41.440;-8.310;2023-02-03T07:07:59;101216.75;;;2.03;95.80
61320;BME280;47202;41.440;-8.310;2023-02-03T07:10:00;101217.59;;;2.03;95.41
61320;BME280;47202;41.440;-8.310;2023-02-03T07:12:02;101225.69;;;2.02;95.60
61320;BME280;47202;41.440;-8.310;2023-02-03T07:14:03;101217.59;;;2.03;96.06
61320;BME280;47202;41.440;-8.310;2023-02-03T07:16:04;101219.56;;;2.01;95.53
61320;BME280;47202;41.440;-8.310;2023-02-03T07:18:05;101230.00;;;2.03;95.27
61320;BME280;47202;41.440;-8.310;2023-02-03T07:20:06;101232.63;;;2.03;95.20
61320;BME280;47202;41.440;-8.310;2023-02-03T07:22:09;101231.94;;;2.01;94.94
61320;BME280;47202;41.440;-8.310;2023-02-03T07:24:11;101232.09;;;1.99;95.33
61320;BME280;47202;41.440;-8.310;2023-02-03T07:26:12;101234.03;;;1.97;95.20
61320;BME280;47202;41.440;-8.310;2023-02-03T07:28:12;101229.44;;;1.99;95.28
61320;BME280;47202;41.440;-8.310;2023-02-03T07:30:14;101233.75;;;2.00;95.12
61320;BME280;47202;41.440;-8.310;2023-02-03T07:32:14;101226.22;;;2.05;96.17
61320;BME280;47202;41.440;-8.310;2023-02-03T07:34:16;101236.41;;;2.10;95.95
61320;BME280;47202;41.440;-8.310;2023-02-03T07:36:16;101236.28;;;2.11;95.96
61320;BME280;47202;41.440;-8.310;2023-02-03T07:38:17;101235.16;;;2.14;95.52
61320;BME280;47202;41.440;-8.310;2023-02-03T07:40:19;101238.50;;;2.16;95.48
61320;BME280;47202;41.440;-8.310;2023-02-03T07:42:20;101230.69;;;2.15;95.63
61320;BME280;47202;41.440;-8.310;2023-02-03T07:44:24;101241.69;;;2.20;94.68
61320;BME280;47202;41.440;-8.310;2023-02-03T07:46:25;101250.34;;;2.12;94.17
61320;BME280;47202;41.440;-8.310;2023-02-03T07:48:26;101243.94;;;2.05;94.75
61320;BME280;47202;41.440;-8.310;2023-02-03T07:50:27;101247.81;;;2.01;94.93
61320;BME280;47202;41.440;-8.310;2023-02-03T07:52:31;101245.19;;;2.01;94.76
61320;BME280;47202;41.440;-8.310;2023-02-03T07:54:35;101241.97;;;1.97;94.96
61320;BME280;47202;41.440;-8.310;2023-02-03T07:56:36;101251.75;;;1.97;94.78
61320;BME280;47202;41.440;-8.310;2023-02-03T07:58:37;101247.81;;;1.91;94.80
61320;BME280;47202;41.440;-8.310;2023-02-03T08:00:41;101253.81;;;1.83;95.37
61320;BME280;47202;41.440;-8.310;2023-02-03T08:02:42;101246.97;;;1.81;95.56
61320;BME280;47202;41.440;-8.310;2023-02-03T08:04:44;101251.16;;;1.83;96.02
61320;BME280;47202;41.440;-8.310;2023-02-03T08:06:44;101259.00;;;1.95;96.58
61320;BME280;47202;41.440;-8.310;2023-02-03T08:08:55;101256.63;;;2.01;96.30
61320;BME280;47202;41.440;-8.310;2023-02-03T08:10:56;101256.06;;;2.07;96.65
61320;BME280;47202;41.440;-8.310;2023-02-03T08:12:57;101256.47;;;2.12;96.27
61320;BME280;47202;41.440;-8.310;2023-02-03T08:14:58;101249.53;;;2.11;95.96
61320;BME280;47202;41.440;-8.310;2023-02-03T08:16:59;101260.41;;;2.18;96.31
61320;BME280;47202;41.440;-8.310;2023-02-03T08:19:00;101258.28;;;2.22;96.62
61320;BME280;47202;41.440;-8.310;2023-02-03T08:21:01;101260.00;;;2.32;96.72
61320;BME280;47202;41.440;-8.310;2023-02-03T08:23:05;101267.22;;;2.40;96.46
61320;BME280;47202;41.440;-8.310;2023-02-03T08:25:07;101269.56;;;2.53;96.45
61320;BME280;47202;41.440;-8.310;2023-02-03T08:27:09;101257.03;;;2.55;96.00
61320;BME280;47202;41.440;-8.310;2023-02-03T08:29:09;101267.31;;;2.68;95.61
61320;BME280;47202;41.440;-8.310;2023-02-03T08:31:11;101273.03;;;2.73;95.39
61320;BME280;47202;41.440;-8.310;2023-02-03T08:33:12;101270.13;;;2.76;95.47
61320;BME280;47202;41.440;-8.310;2023-02-03T08:35:13;101261.34;;;2.75;95.46
61320;BME280;47202;41.440;-8.310;2023-02-03T08:37:16;101280.09;;;2.92;95.71
61320;BME280;47202;41.440;-8.310;2023-02-03T08:39:23;101253.09;;;2.79;95.51
61320;BME280;47202;41.440;-8.310;2023-02-03T08:41:25;101276.44;;;3.12;96.18
61320;BME280;47202;41.440;-8.310;2023-02-03T08:43:29;101279.50;;;3.17;95.97
61320;BME280;47202;41.440;-8.310;2023-02-03T08:45:30;101268.88;;;3.17;95.10
61320;BME280;47202;41.440;-8.310;2023-02-03T08:47:31;101286.28;;;3.30;94.93
61320;BME280;47202;41.440;-8.310;2023-02-03T08:49:33;101295.50;;;3.35;94.67
61320;BME280;47202;41.440;-8.310;2023-02-03T08:51:35;101291.94;;;3.45;94.93
61320;BME280;47202;41.440;-8.310;2023-02-03T08:53:36;101301.53;;;3.55;95.43
61320;BME280;47202;41.440;-8.310;2023-02-03T08:55:40;101304.84;;;3.67;95.39
61320;BME280;47202;41.440;-8.310;2023-02-03T08:57:41;101296.69;;;3.78;95.64
61320;BME280;47202;41.440;-8.310;2023-02-03T08:59:43;101299.81;;;3.92;93.66
61320;BME280;47202;41.440;-8.310;2023-02-03T09:01:44;101297.63;;;4.05;92.42
61320;BME280;47202;41.440;-8.310;2023-02-03T09:03:46;101295.38;;;4.10;91.00
61320;BME280;47202;41.440;-8.310;2023-02-03T09:05:47;101293.69;;;4.27;91.86
61320;BME280;47202;41.440;-8.310;2023-02-03T09:07:48;101303.94;;;4.40;91.75
61320;BME280;47202;41.440;-8.310;2023-02-03T09:09:49;101299.31;;;4.60;90.04
61320;BME280;47202;41.440;-8.310;2023-02-03T09:11:50;101296.38;;;4.71;89.40
61320;BME280;47202;41.440;-8.310;2023-02-03T09:13:51;101289.22;;;4.89;87.55
61320;BME280;47202;41.440;-8.310;2023-02-03T09:15:52;101292.72;;;5.16;87.54
61320;BME280;47202;41.440;-8.310;2023-02-03T09:17:53;101297.69;;;5.45;86.66
61320;BME280;47202;41.440;-8.310;2023-02-03T09:19:56;101302.13;;;5.71;85.12
61320;BME280;47202;41.440;-8.310;2023-02-03T09:21:57;101300.56;;;5.94;84.15
61320;BME280;47202;41.440;-8.310;2023-02-03T09:24:02;101305.63;;;6.22;82.85
61320;BME280;47202;41.440;-8.310;2023-02-03T09:26:05;101299.63;;;6.36;82.31
61320;BME280;47202;41.440;-8.310;2023-02-03T09:30:17;101286.66;;;6.74;80.03
61320;BME280;47202;41.440;-8.310;2023-02-03T09:32:20;101301.81;;;6.90;79.83
61320;BME280;47202;41.440;-8.310;2023-02-03T09:34:24;101250.13;;;6.75;79.67
61320;BME280;47202;41.440;-8.310;2023-02-03T09:36:25;101304.09;;;7.26;79.02
61320;BME280;47202;41.440;-8.310;2023-02-03T09:38:26;101286.06;;;7.76;74.45
61320;BME280;47202;41.440;-8.310;2023-02-03T09:40:32;101299.41;;;8.07;73.85
61320;BME280;47202;41.440;-8.310;2023-02-03T09:45:10;101307.00;;;8.49;72.44
61320;BME280;47202;41.440;-8.310;2023-02-03T09:47:22;101305.16;;;8.88;71.04
61320;BME280;47202;41.440;-8.310;2023-02-03T09:50:30;101306.34;;;9.23;69.29
61320;BME280;47202;41.440;-8.310;2023-02-03T09:55:40;101299.31;;;9.37;69.00
61320;BME280;47202;41.440;-8.310;2023-02-03T09:57:00;101291.88;;;10.20;64.36
61320;BME280;47202;41.440;-8.310;2023-02-03T09:59:05;101280.91;;;10.36;63.76
61320;BME280;47202;41.440;-8.310;2023-02-03T10:01:08;101309.00;;;10.83;63.30
61320;BME280;47202;41.440;-8.310;2023-02-03T10:07:14;101303.97;;;11.30;61.59
61320;BME280;47202;41.440;-8.310;2023-02-03T10:13:14;101296.22;;;11.97;57.81
61320;BME280;47202;41.440;-8.310;2023-02-03T10:16:30;101296.16;;;12.51;57.63
61320;BME280;47202;41.440;-8.310;2023-02-03T10:18:16;101292.38;;;13.39;55.11
61320;BME280;47202;41.440;-8.310;2023-02-03T10:20:41;101284.19;;;14.11;51.71
61320;BME280;47202;41.440;-8.310;2023-02-03T10:23:01;101282.59;;;14.66;50.60
61320;BME280;47202;41.440;-8.310;2023-02-03T10:25:32;101289.06;;;15.27;48.49
61320;BME280;47202;41.440;-8.310;2023-02-03T10:28:05;101292.94;;;16.24;46.44
61320;BME280;47202;41.440;-8.310;2023-02-03T10:30:28;101276.09;;;16.87;43.65
61320;BME280;47202;41.440;-8.310;2023-02-03T10:32:31;101283.28;;;18.10;39.88
61320;BME280;47202;41.440;-8.310;2023-02-03T10:34:33;101286.31;;;18.25;40.15
61320;BME280;47202;41.440;-8.310;2023-02-03T10:39:44;101295.00;;;18.56;37.50
61320;BME280;47202;41.440;-8.310;2023-02-03T10:41:43;101277.44;;;19.58;36.54
61320;BME280;47202;41.440;-8.310;2023-02-03T10:43:45;101274.19;;;19.78;37.22
61320;BME280;47202;41.440;-8.310;2023-02-03T10:45:47;101286.19;;;20.31;36.44
61320;BME280;47202;41.440;-8.310;2023-02-03T10:50:23;101248.69;;;21.92;32.05
61320;BME280;47202;41.440;-8.310;2023-02-03T10:52:35;101270.03;;;22.15;31.97
61320;BME280;47202;41.440;-8.310;2023-02-03T10:54:36;101285.06;;;23.30;29.96
61320;BME280;47202;41.440;-8.310;2023-02-03T10:56:38;101272.25;;;22.95;29.35
61320;BME280;47202;41.440;-8.310;2023-02-03T10:58:54;101266.22;;;24.28;26.22
61320;BME280;47202;41.440;-8.310;2023-02-03T11:01:04;101288.06;;;24.38;26.52
61320;BME280;47202;41.440;-8.310;2023-02-03T11:03:22;101290.63;;;22.84;27.82
61320;BME280;47202;41.440;-8.310;2023-02-03T11:05:25;101283.47;;;22.88;28.19
61320;BME280;47202;41.440;-8.310;2023-02-03T11:07:29;101285.50;;;23.53;27.82
61320;BME280;47202;41.440;-8.310;2023-02-03T11:09:31;101285.16;;;23.75;27.43
61320;BME280;47202;41.440;-8.310;2023-02-03T11:11:32;101265.84;;;24.40;27.61
61320;BME280;47202;41.440;-8.310;2023-02-03T11:13:35;101272.78;;;24.96;26.59
61320;BME280;47202;41.440;-8.310;2023-02-03T11:15:36;101274.03;;;25.33;25.03
61320;BME280;47202;41.440;-8.310;2023-02-03T11:17:43;101272.72;;;25.49;24.13
61320;BME280;47202;41.440;-8.310;2023-02-03T11:19:46;101273.03;;;25.47;25.45
61320;BME280;47202;41.440;-8.310;2023-02-03T11:21:52;101261.47;;;25.70;25.15
61320;BME280;47202;41.440;-8.310;2023-02-03T11:24:20;101265.84;;;26.79;23.14
61320;BME280;47202;41.440;-8.310;2023-02-03T11:26:27;101268.63;;;26.93;23.13
61320;BME280;47202;41.440;-8.310;2023-02-03T11:28:36;101268.81;;;26.50;23.04
61320;BME280;47202;41.440;-8.310;2023-02-03T11:30:57;101270.50;;;26.32;23.45
61320;BME280;47202;41.440;-8.310;2023-02-03T11:33:15;101247.97;;;26.11;24.06
61320;BME280;47202;41.440;-8.310;2023-02-03T11:38:33;101263.38;;;26.64;23.13